createdAt,value
2018-05-27T00:01:17.830Z,21.20
2018-05-27T00:03:46.252Z,21.20
2018-05-27T00:06:14.477Z,21.10
2018-05-27T00:08:43.081Z,21.10
2018-05-27T00:11:10.636Z,21.00
2018-05-27T00:13:38.128Z,20.90
2018-05-27T00:16:05.639Z,20.90
2018-05-27T00:18:33.246Z,20.90
2018-05-27T00:21:00.751Z,20.90
2018-05-27T00:23:29.449Z,20.90
2018-05-27T00:25:57.695Z,20.90
2018-05-27T00:28:25.583Z,20.80
2018-05-27T00:30:53.859Z,20.90
2018-05-27T00:33:22.242Z,20.90
2018-05-27T00:35:50.504Z,20.90
2018-05-27T00:38:18.780Z,20.90
2018-05-27T00:40:47.025Z,20.80
2018-05-27T00:43:14.509Z,20.80
2018-05-27T00:45:42.795Z,20.80
2018-05-27T00:48:10.687Z,20.70
2018-05-27T00:50:38.186Z,20.70
2018-05-27T00:53:05.694Z,20.70
2018-05-27T00:55:33.957Z,20.60
2018-05-27T00:58:02.232Z,20.60
2018-05-27T01:00:29.760Z,20.50
2018-05-27T01:02:57.244Z,20.40
2018-05-27T01:05:24.826Z,20.40
2018-05-27T01:37:42.556Z,20.00
2018-05-27T01:40:10.051Z,20.00
2018-05-27T01:42:37.557Z,20.00
2018-05-27T01:45:05.062Z,19.80
2018-05-27T01:47:32.545Z,19.80
2018-05-27T01:50:00.042Z,19.90
2018-05-27T01:52:27.556Z,19.80
2018-05-27T01:54:55.804Z,19.70
2018-05-27T01:57:23.293Z,19.80
2018-05-27T01:59:51.775Z,19.80
2018-05-27T02:02:20.028Z,19.70
2018-05-27T02:04:47.511Z,19.70
2018-05-27T02:07:15.367Z,19.60
2018-05-27T02:09:43.622Z,19.70
2018-05-27T02:12:11.103Z,19.70
2018-05-27T02:14:39.356Z,19.60
2018-05-27T02:17:06.855Z,19.60
2018-05-27T02:19:34.348Z,19.60
2018-05-27T02:22:02.126Z,19.50
2018-05-27T02:24:29.618Z,19.40
2018-05-27T02:26:57.124Z,19.50
2018-05-27T02:29:25.035Z,19.40
2018-05-27T02:31:52.539Z,19.50
2018-05-27T02:34:20.022Z,19.50
2018-05-27T02:36:47.931Z,19.50
2018-05-27T02:39:15.429Z,19.40
2018-05-27T02:41:42.939Z,19.40
2018-05-27T02:44:10.457Z,19.40
2018-05-27T02:46:37.966Z,19.40
2018-05-27T02:49:05.451Z,19.40
2018-05-27T02:51:32.972Z,19.30
2018-05-27T02:54:00.966Z,19.20
2018-05-27T02:56:28.476Z,19.20
2018-05-27T02:58:56.757Z,19.20
2018-05-27T03:01:24.854Z,19.20
2018-05-27T03:03:52.687Z,19.20
2018-05-27T03:06:21.286Z,19.20
2018-05-27T03:08:48.790Z,19.20
2018-05-27T03:11:16.678Z,19.10
2018-05-27T03:13:44.203Z,19.20
2018-05-27T03:16:11.701Z,19.10
2018-05-27T03:18:39.186Z,19.00
2018-05-27T03:21:06.686Z,19.00
2018-05-27T03:23:34.184Z,19.00
2018-05-27T03:26:02.463Z,19.00
2018-05-27T03:28:30.754Z,19.00
2018-05-27T03:30:59.067Z,19.10
2018-05-27T03:33:26.547Z,19.00
2018-05-27T03:35:54.058Z,19.00
2018-05-27T03:38:21.538Z,19.00
2018-05-27T03:40:49.039Z,18.90
2018-05-27T03:43:17.313Z,18.90
2018-05-27T03:45:45.610Z,18.90
2018-05-27T03:48:13.165Z,19.00
2018-05-27T03:50:41.137Z,19.00
2018-05-27T03:53:09.042Z,19.00
2018-05-27T03:55:36.554Z,19.00
2018-05-27T03:58:04.063Z,19.00
2018-05-27T04:00:31.542Z,19.10
2018-05-27T04:02:59.044Z,19.10
2018-05-27T04:05:38.474Z,19.10
2018-05-27T04:08:17.833Z,19.20
2018-05-27T04:10:45.335Z,19.20
2018-05-27T04:13:12.918Z,19.20
2018-05-27T04:15:41.164Z,19.30
2018-05-27T04:18:09.063Z,19.30
2018-05-27T04:20:36.562Z,19.30
2018-05-27T04:23:04.059Z,19.30
2018-05-27T04:25:32.355Z,19.30
2018-05-27T04:27:59.934Z,19.30
2018-05-27T04:30:27.418Z,19.40
2018-05-27T04:32:55.324Z,19.30
2018-05-27T04:35:22.830Z,19.20
2018-05-27T04:37:50.315Z,19.20
2018-05-27T04:40:17.824Z,19.30
2018-05-27T04:42:45.307Z,19.30
2018-05-27T04:45:12.849Z,19.30
2018-05-27T04:47:40.332Z,19.30
2018-05-27T04:50:07.956Z,19.30
2018-05-27T04:52:35.486Z,19.30
2018-05-27T04:55:03.740Z,19.30
2018-05-27T04:57:31.990Z,19.30
2018-05-27T04:59:59.497Z,19.40
2018-05-27T05:02:27.000Z,19.40
2018-05-27T05:04:54.886Z,19.40
2018-05-27T05:07:22.378Z,19.50
2018-05-27T05:09:50.250Z,19.70
2018-05-27T05:12:17.744Z,19.70
2018-05-27T05:14:45.225Z,19.90
2018-05-27T05:17:13.221Z,20.10
2018-05-27T05:19:41.123Z,20.20
2018-05-27T05:22:08.636Z,20.20
2018-05-27T05:24:36.919Z,20.30
2018-05-27T05:27:05.176Z,20.30
2018-05-27T05:29:32.670Z,20.50
2018-05-27T05:32:00.181Z,20.60
2018-05-27T05:34:27.803Z,20.70
2018-05-27T05:36:55.279Z,20.70
2018-05-27T05:39:23.089Z,20.80
2018-05-27T05:41:51.357Z,20.80
2018-05-27T05:44:19.613Z,20.80
2018-05-27T05:46:48.935Z,20.80
2018-05-27T05:49:17.224Z,20.70
2018-05-27T05:51:44.719Z,20.80
2018-05-27T05:54:12.271Z,20.80
2018-05-27T05:56:39.752Z,20.90
2018-05-27T05:59:08.203Z,20.90
2018-05-27T06:01:35.963Z,21.00
2018-05-27T06:04:03.443Z,21.00
2018-05-27T06:06:30.919Z,21.00
2018-05-27T06:08:58.421Z,21.30
2018-05-27T06:11:26.778Z,21.40
2018-05-27T06:13:55.029Z,21.40
2018-05-27T06:16:22.544Z,21.60
2018-05-27T06:18:50.022Z,21.70
2018-05-27T06:21:17.514Z,21.80
2018-05-27T06:23:45.834Z,21.80
2018-05-27T06:26:13.310Z,21.80
2018-05-27T06:28:40.795Z,21.80
2018-05-27T06:31:08.616Z,21.80
2018-05-27T06:33:36.101Z,21.80
2018-05-27T06:36:03.874Z,21.80
2018-05-27T06:38:31.669Z,22.00
2018-05-27T06:40:59.909Z,22.20
2018-05-27T06:43:27.423Z,22.50
2018-05-27T06:45:54.929Z,22.80
2018-05-27T06:48:22.411Z,23.10
2018-05-27T06:50:50.651Z,23.30
2018-05-27T06:56:25.906Z,23.60
2018-05-27T06:58:53.406Z,23.60
2018-05-27T07:01:21.661Z,24.40
2018-05-27T07:03:49.134Z,25.00
2018-05-27T07:06:17.385Z,25.50
2018-05-27T07:08:44.877Z,25.50
2018-05-27T07:11:12.355Z,26.40
2018-05-27T07:13:39.855Z,26.70
2018-05-27T07:16:07.340Z,26.70
2018-05-27T07:18:35.581Z,27.30
2018-05-27T07:21:03.084Z,27.80
2018-05-27T07:23:30.571Z,28.00
2018-05-27T07:25:58.061Z,28.20
2018-05-27T07:28:26.307Z,28.20
2018-05-27T07:30:54.174Z,28.50
2018-05-27T07:33:21.665Z,28.60
2018-05-27T07:35:49.938Z,28.30
2018-05-27T07:38:18.212Z,28.10
2018-05-27T07:40:46.522Z,28.20
2018-05-27T07:43:14.769Z,28.50
2018-05-27T07:45:43.015Z,28.70
2018-05-27T07:48:10.559Z,28.70
2018-05-27T07:50:38.091Z,28.60
2018-05-27T07:53:05.562Z,28.70
2018-05-27T07:55:33.048Z,28.50
2018-05-27T07:58:02.389Z,28.30
2018-05-27T08:00:30.625Z,28.10
2018-05-27T08:02:58.124Z,28.00
2018-05-27T08:05:25.717Z,27.80
2018-05-27T08:07:53.198Z,27.50
2018-05-27T08:10:20.703Z,27.50
2018-05-27T08:12:48.206Z,27.20
2018-05-27T08:15:15.695Z,26.80
2018-05-27T08:17:43.938Z,26.50
2018-05-27T08:20:12.204Z,26.30
2018-05-27T08:22:39.712Z,26.10
2018-05-27T08:25:07.231Z,25.70
2018-05-27T08:27:35.122Z,25.50
2018-05-27T08:30:03.407Z,25.50
2018-05-27T08:32:31.645Z,25.50
2018-05-27T08:34:59.167Z,25.50
2018-05-27T08:37:26.685Z,25.50
2018-05-27T08:39:54.181Z,25.80
2018-05-27T08:42:22.087Z,26.60
2018-05-27T08:44:49.670Z,26.80
2018-05-27T08:48:00.320Z,27.00
2018-05-27T08:50:27.828Z,27.00
2018-05-27T08:52:55.312Z,27.30
2018-05-27T08:55:23.235Z,27.30
2018-05-27T08:57:51.491Z,27.30
2018-05-27T09:00:19.038Z,27.60
2018-05-27T09:02:46.518Z,27.80
2018-05-27T09:05:14.452Z,28.00
2018-05-27T09:07:42.706Z,28.00
2018-05-27T09:10:10.220Z,28.10
2018-05-27T09:12:38.477Z,28.00
2018-05-27T09:15:06.359Z,27.90
2018-05-27T09:17:34.624Z,27.70
2018-05-27T09:20:02.887Z,27.40
2018-05-27T09:22:36.916Z,27.20
2018-05-27T09:25:05.187Z,27.20
2018-05-27T09:27:32.718Z,27.20
2018-05-27T09:30:00.481Z,27.00
2018-05-27T09:32:27.975Z,27.00
2018-05-27T09:34:56.237Z,27.10
2018-05-27T09:37:24.506Z,26.90
2018-05-27T09:39:52.802Z,26.90
2018-05-27T09:42:21.404Z,26.90
2018-05-27T09:44:48.967Z,26.80
2018-05-27T09:47:16.846Z,26.80
2018-05-27T09:49:44.315Z,26.70
2018-05-27T09:52:11.833Z,26.70
2018-05-27T09:54:39.349Z,26.70
2018-05-27T09:57:07.144Z,26.70
2018-05-27T09:59:35.434Z,26.70
2018-05-27T10:02:02.928Z,26.80
2018-05-27T10:04:30.419Z,26.80
2018-05-27T10:06:58.698Z,26.80
2018-05-27T10:09:26.215Z,26.80
2018-05-27T10:11:53.715Z,26.80
2018-05-27T10:14:22.415Z,27.20
2018-05-27T10:16:50.685Z,27.30
2018-05-27T10:19:18.215Z,27.30
2018-05-27T10:21:45.789Z,27.70
2018-05-27T10:24:14.081Z,28.50
2018-05-27T10:26:41.574Z,28.40
2018-05-27T10:29:09.079Z,28.60
2018-05-27T10:31:37.343Z,28.50
2018-05-27T10:34:04.859Z,28.50
2018-05-27T10:36:32.419Z,28.50
2018-05-27T10:38:59.912Z,28.30
2018-05-27T10:41:27.438Z,28.20
2018-05-27T10:43:55.083Z,28.00
2018-05-27T10:46:22.571Z,27.70
2018-05-27T10:48:50.193Z,27.50
2018-05-27T10:51:17.725Z,27.50
2018-05-27T10:53:45.963Z,27.30
2018-05-27T10:56:13.455Z,27.20
2018-05-27T10:58:41.707Z,27.10
2018-05-27T11:01:09.192Z,27.20
2018-05-27T11:03:36.732Z,27.20
2018-05-27T11:06:04.218Z,27.10
2018-05-27T11:08:31.701Z,27.20
2018-05-27T11:10:59.212Z,27.20
2018-05-27T11:13:27.591Z,27.30
2018-05-27T11:15:55.423Z,27.30
2018-05-27T11:18:22.909Z,27.40
2018-05-27T11:20:50.442Z,27.20
2018-05-27T11:23:17.938Z,27.30
2018-05-27T11:25:45.434Z,27.20
2018-05-27T11:28:12.944Z,27.20
2018-05-27T11:30:41.207Z,27.30
2018-05-27T11:33:09.608Z,27.40
2018-05-27T11:35:37.288Z,27.40
2018-05-27T11:38:04.749Z,27.40
2018-05-27T11:40:32.273Z,27.20
2018-05-27T11:43:00.539Z,27.40
2018-05-27T11:45:28.819Z,27.20
2018-05-27T11:47:56.332Z,27.30
2018-05-27T11:50:23.894Z,27.60
2018-05-27T11:52:51.385Z,27.50
2018-05-27T11:55:19.212Z,27.60
2018-05-27T11:57:46.746Z,27.60
2018-05-27T12:00:14.246Z,27.60
2018-05-27T12:02:41.820Z,27.70
2018-05-27T12:05:10.170Z,27.70
2018-05-27T12:07:37.660Z,27.50
2018-05-27T12:10:06.023Z,27.40
2018-05-27T12:12:33.546Z,27.40
2018-05-27T12:15:01.167Z,27.00
2018-05-27T12:17:29.425Z,26.60
2018-05-27T12:19:56.921Z,26.50
2018-05-27T12:22:24.424Z,26.40
2018-05-27T12:24:53.605Z,26.40
2018-05-27T12:27:21.522Z,26.30
2018-05-27T12:29:49.450Z,26.40
2018-05-27T12:32:16.942Z,26.50
2018-05-27T12:34:45.231Z,26.60
2018-05-27T12:37:12.769Z,26.60
2018-05-27T12:39:41.065Z,26.70
2018-05-27T12:42:08.607Z,26.70
2018-05-27T12:44:36.126Z,26.70
2018-05-27T12:47:03.905Z,26.60
2018-05-27T12:49:31.425Z,26.50
2018-05-27T12:51:58.947Z,26.40
2018-05-27T12:54:26.467Z,26.20
2018-05-27T12:56:54.046Z,26.00
2018-05-27T12:59:21.526Z,26.00
2018-05-27T13:01:49.015Z,26.00
2018-05-27T13:04:16.969Z,25.80
2018-05-27T13:06:44.542Z,25.70
2018-05-27T13:09:12.032Z,25.80
2018-05-27T13:11:39.541Z,25.80
2018-05-27T13:14:07.020Z,25.80
2018-05-27T13:16:34.710Z,25.80
2018-05-27T13:19:02.434Z,25.80
2018-05-27T13:21:29.953Z,25.70
2018-05-27T13:23:57.455Z,25.60
2018-05-27T13:26:24.970Z,25.50
2018-05-27T13:28:53.239Z,25.50
2018-05-27T13:31:20.782Z,25.50
2018-05-27T13:33:49.087Z,25.40
2018-05-27T13:36:16.598Z,25.50
2018-05-27T13:38:44.103Z,25.40
2018-05-27T13:41:11.997Z,25.40
2018-05-27T13:43:39.510Z,25.40
2018-05-27T13:46:07.074Z,25.40
2018-05-27T13:48:35.344Z,25.40
2018-05-27T13:51:03.595Z,25.30
2018-05-27T13:53:31.142Z,25.20
2018-05-27T13:59:11.719Z,25.10
2018-05-27T14:01:39.246Z,25.00
2018-05-27T14:04:07.914Z,24.90
2018-05-27T14:06:35.433Z,24.90
2018-05-27T14:09:03.026Z,24.80
2018-05-27T14:11:30.542Z,24.60
2018-05-27T14:13:58.036Z,24.50
2018-05-27T14:16:26.346Z,24.30
2018-05-27T14:18:53.852Z,24.30
2018-05-27T14:21:21.329Z,24.20
2018-05-27T14:23:49.251Z,24.20
2018-05-27T14:26:16.836Z,24.20
2018-05-27T14:28:44.366Z,24.30
2018-05-27T14:31:12.228Z,24.40
2018-05-27T14:33:39.728Z,24.20
2018-05-27T14:36:07.263Z,24.30
2018-05-27T14:38:34.861Z,24.40
2018-05-27T14:41:02.363Z,24.40
2018-05-27T14:43:29.858Z,24.50
2018-05-27T14:45:58.559Z,24.60
2018-05-27T14:48:26.151Z,24.70
2018-05-27T14:50:53.687Z,24.70
2018-05-27T14:53:21.538Z,24.80
2018-05-27T14:55:49.825Z,24.80
2018-05-27T14:58:17.358Z,25.00
2018-05-27T15:00:45.836Z,25.00
2018-05-27T15:03:13.726Z,24.90
2018-05-27T15:05:41.283Z,25.20
2018-05-27T15:08:09.143Z,25.30
2018-05-27T15:10:36.633Z,25.40
2018-05-27T15:13:04.125Z,25.40
2018-05-27T15:15:31.635Z,25.20
2018-05-27T15:17:59.157Z,25.20
2018-05-27T15:20:27.727Z,25.10
2018-05-27T15:22:56.116Z,25.00
2018-05-27T15:25:24.417Z,25.00
2018-05-27T15:27:51.930Z,25.00
2018-05-27T15:30:20.261Z,24.90
2018-05-27T15:32:47.819Z,24.80
2018-05-27T15:35:15.322Z,24.80
2018-05-27T15:37:42.851Z,24.80
2018-05-27T15:40:10.341Z,24.80
2018-05-27T15:42:37.842Z,24.80
2018-05-27T15:45:05.348Z,24.80
2018-05-27T15:47:33.630Z,24.80
2018-05-27T15:50:01.311Z,24.70
2018-05-27T15:52:29.948Z,24.80
2018-05-27T15:54:57.511Z,26.80
2018-05-27T15:57:33.473Z,24.50
2018-05-27T16:00:01.012Z,24.40
2018-05-27T16:02:28.507Z,24.40
2018-05-27T16:04:56.699Z,24.30
2018-05-27T16:07:24.214Z,24.40
2018-05-27T16:09:51.841Z,24.30
2018-05-27T16:12:19.381Z,24.20
2018-05-27T16:14:46.920Z,24.20
2018-05-27T16:17:15.295Z,24.10
2018-05-27T16:19:43.606Z,24.00
2018-05-27T16:22:11.101Z,24.00
2018-05-27T16:24:38.605Z,24.10
2018-05-27T16:27:06.115Z,24.10
2018-05-27T16:29:33.683Z,23.90
2018-05-27T16:32:01.169Z,23.90
2018-05-27T16:34:29.777Z,24.00
2018-05-27T16:36:57.325Z,23.90
2018-05-27T16:39:24.859Z,23.80
2018-05-27T16:41:53.438Z,23.80
2018-05-27T16:44:20.944Z,23.80
2018-05-27T16:46:48.440Z,23.70
2018-05-27T16:49:16.815Z,23.70
2018-05-27T16:51:44.336Z,23.70
2018-05-27T16:54:11.829Z,23.60
2018-05-27T16:56:39.386Z,23.60
2018-05-27T16:59:06.891Z,23.60
2018-05-27T17:01:34.403Z,23.60
2018-05-27T17:04:02.663Z,23.60
2018-05-27T17:06:30.913Z,23.60
2018-05-27T17:08:58.410Z,23.60
2018-05-27T17:11:26.544Z,23.60
2018-05-27T17:13:54.082Z,23.70
2018-05-27T17:16:21.613Z,23.80
2018-05-27T17:18:50.314Z,23.70
2018-05-27T17:21:18.574Z,23.70
2018-05-27T17:23:46.104Z,23.70
2018-05-27T17:26:14.004Z,23.80
2018-05-27T17:28:42.277Z,23.80
2018-05-27T17:31:10.547Z,23.80
2018-05-27T17:33:38.157Z,23.70
2018-05-27T17:36:05.735Z,23.80
2018-05-27T17:38:33.629Z,23.80
2018-05-27T17:41:01.917Z,23.80
2018-05-27T17:43:30.194Z,23.80
2018-05-27T17:45:58.456Z,23.70
2018-05-27T17:48:26.073Z,23.60
2018-05-27T17:50:53.575Z,23.60
2018-05-27T17:53:21.883Z,23.60
2018-05-27T17:55:49.726Z,23.40
2018-05-27T17:58:18.011Z,23.40
2018-05-27T18:00:45.587Z,23.40
2018-05-27T18:03:13.105Z,23.40
2018-05-27T18:05:41.189Z,23.20
2018-05-27T18:08:09.447Z,23.30
2018-05-27T18:10:36.962Z,23.30
2018-05-27T18:13:04.476Z,23.30
2018-05-27T18:15:32.748Z,23.20
2018-05-27T18:18:00.673Z,23.20
2018-05-27T18:20:28.170Z,23.20
2018-05-27T18:22:56.437Z,23.20
2018-05-27T18:25:24.356Z,23.30
2018-05-27T18:27:51.855Z,23.20
2018-05-27T18:30:19.347Z,23.10
2018-05-27T18:32:46.896Z,23.00
2018-05-27T18:35:15.209Z,23.00
2018-05-27T18:37:42.724Z,23.00
2018-05-27T18:40:10.991Z,23.00
2018-05-27T18:42:39.995Z,22.90
2018-05-27T18:45:07.519Z,22.90
2018-05-27T18:47:35.050Z,22.90
2018-05-27T18:50:02.568Z,22.80
2018-05-27T18:52:30.469Z,22.80
2018-05-27T18:54:57.987Z,22.80
2018-05-27T18:57:26.261Z,22.70
2018-05-27T18:59:54.527Z,22.70
2018-05-27T19:02:22.102Z,22.60
2018-05-27T19:04:49.620Z,22.70
2018-05-27T19:07:17.139Z,22.70
2018-05-27T19:09:44.666Z,22.50
2018-05-27T19:12:12.923Z,22.50
2018-05-27T19:14:40.433Z,22.50
2018-05-27T19:17:07.962Z,22.50
2018-05-27T19:19:35.887Z,22.40
2018-05-27T19:22:03.416Z,22.40
2018-05-27T19:24:31.691Z,22.30
2018-05-27T19:26:59.201Z,22.20
2018-05-27T19:29:26.730Z,22.20
2018-05-27T19:31:54.251Z,22.10
2018-05-27T19:34:21.755Z,22.10
2018-05-27T19:36:49.260Z,22.00
2018-05-27T19:39:17.538Z,22.10
2018-05-27T19:41:45.039Z,22.00
2018-05-27T19:44:12.525Z,22.00
2018-05-27T19:46:40.035Z,22.00
2018-05-27T19:49:07.557Z,21.90
2018-05-27T19:51:35.823Z,21.80
2018-05-27T19:54:04.101Z,21.80
2018-05-27T19:56:32.365Z,21.70
2018-05-27T19:59:00.295Z,21.70
2018-05-27T20:01:27.815Z,21.70
2018-05-27T20:03:56.105Z,21.70
2018-05-27T20:06:23.616Z,21.80
2018-05-27T20:08:51.138Z,21.80
2018-05-27T20:11:18.751Z,21.80
2018-05-27T20:13:46.276Z,21.80
2018-05-27T20:16:13.804Z,21.70
2018-05-27T20:18:41.323Z,21.70
2018-05-27T20:21:09.626Z,21.60
2018-05-27T20:23:37.608Z,21.60
2018-05-27T20:26:05.081Z,21.60
2018-05-27T20:28:32.605Z,21.60
2018-05-27T20:31:00.142Z,21.50
2018-05-27T20:33:28.424Z,21.40
2018-05-27T20:35:55.926Z,21.50
2018-05-27T20:38:23.426Z,21.40
2018-05-27T20:40:51.684Z,21.30
2018-05-27T20:43:19.180Z,21.40
2018-05-27T20:45:46.691Z,21.30
2018-05-27T20:51:05.291Z,21.20
2018-05-27T20:53:32.788Z,21.20
2018-05-27T20:56:00.368Z,21.30
2018-05-27T20:58:27.897Z,21.30
2018-05-27T21:00:55.442Z,21.40
2018-05-27T21:03:23.092Z,21.20
2018-05-27T21:05:51.388Z,21.20
2018-05-27T21:08:18.882Z,21.20
2018-05-27T21:10:46.424Z,21.20
2018-05-27T21:13:14.019Z,21.20
2018-05-27T21:15:41.974Z,21.20
2018-05-27T21:18:09.532Z,21.20
2018-05-27T21:20:37.443Z,21.20
2018-05-27T21:23:04.966Z,21.20
2018-05-27T21:25:32.484Z,21.20
2018-05-27T21:28:00.440Z,21.10
2018-05-27T21:30:27.958Z,21.10
2018-05-27T21:32:56.314Z,21.00
2018-05-27T21:35:23.816Z,21.10
2018-05-27T21:37:51.414Z,21.10
2018-05-27T21:40:18.940Z,21.00
2018-05-27T21:42:46.935Z,21.00
2018-05-27T21:45:14.450Z,21.00
2018-05-27T21:47:42.201Z,21.00
2018-05-27T21:50:10.491Z,21.00
2018-05-27T21:52:38.130Z,21.00
2018-05-27T21:55:06.426Z,21.00
2018-05-27T21:57:34.691Z,21.00
2018-05-27T22:00:02.991Z,20.90
2018-05-27T22:02:30.492Z,20.90
2018-05-27T22:04:58.307Z,20.80
2018-05-27T22:07:25.810Z,20.80
2018-05-27T22:09:53.333Z,20.80
2018-05-27T22:12:21.180Z,20.80
2018-05-27T22:14:49.421Z,20.80
2018-05-27T22:17:16.951Z,20.80
2018-05-27T22:19:44.789Z,20.80
2018-05-27T22:22:12.310Z,20.80
2018-05-27T22:24:39.802Z,20.80
2018-05-27T22:27:07.668Z,20.70
2018-05-27T22:29:35.261Z,20.70
2018-05-27T22:32:02.781Z,20.70
2018-05-27T22:34:30.315Z,20.60
2018-05-27T22:36:57.866Z,20.60
2018-05-27T22:39:25.396Z,20.60
2018-05-27T22:41:53.332Z,20.60
2018-05-27T22:44:20.831Z,20.60
2018-05-27T22:46:48.742Z,20.60
2018-05-27T22:49:17.023Z,20.60
2018-05-27T22:51:44.516Z,20.60
2018-05-27T22:54:12.839Z,20.60
2018-05-27T22:56:40.519Z,20.50
2018-05-27T22:59:08.019Z,20.50
2018-05-27T23:01:37.213Z,20.50
2018-05-27T23:04:05.467Z,20.40
2018-05-27T23:06:32.984Z,20.40
2018-05-27T23:09:00.510Z,20.40
2018-05-27T23:11:28.345Z,20.30
2018-05-27T23:13:55.845Z,20.30
2018-05-27T23:16:24.891Z,20.30
2018-05-27T23:18:53.543Z,20.30
2018-05-27T23:21:21.805Z,20.30
2018-05-27T23:23:50.061Z,20.30
2018-05-27T23:26:17.945Z,20.30
2018-05-27T23:28:45.438Z,20.30
2018-05-27T23:31:13.335Z,20.30
2018-05-27T23:33:40.855Z,20.30
2018-05-27T23:36:08.398Z,20.30
2018-05-27T23:38:35.894Z,20.30
2018-05-27T23:41:03.750Z,20.30
2018-05-27T23:43:31.271Z,20.30
2018-05-27T23:45:59.544Z,20.30
2018-05-27T23:48:28.245Z,20.20
2018-05-27T23:50:55.769Z,20.20
2018-05-27T23:53:23.275Z,20.20
2018-05-27T23:55:50.808Z,20.20
2018-05-27T23:58:19.069Z,20.20
